createdAt,value
2018-10-09T00:00:12.615Z,13.20
2018-10-09T00:02:41.865Z,13.17
2018-10-09T00:05:11.115Z,13.47
2018-10-09T00:07:40.363Z,13.87
2018-10-09T00:10:10.401Z,13.73
2018-10-09T00:12:39.614Z,13.97
2018-10-09T00:15:08.891Z,13.83
2018-10-09T00:17:38.172Z,13.97
2018-10-09T00:20:07.447Z,14.20
2018-10-09T00:22:36.759Z,14.37
2018-10-09T00:25:06.941Z,14.67
2018-10-09T00:27:36.183Z,14.40
2018-10-09T00:30:05.457Z,15.10
2018-10-09T00:32:34.696Z,15.33
2018-10-09T00:35:04.002Z,15.23
2018-10-09T00:37:33.258Z,16.47
2018-10-09T00:40:02.504Z,16.20
2018-10-09T00:42:31.742Z,15.70
2018-10-09T00:45:01.002Z,16.00
2018-10-09T00:47:30.759Z,17.03
2018-10-09T00:50:00.068Z,16.47
2018-10-09T00:52:29.314Z,17.07
2018-10-09T00:54:58.651Z,17.00
2018-10-09T00:57:27.985Z,17.00
2018-10-09T00:59:57.391Z,17.53
2018-10-09T01:02:26.678Z,17.17
2018-10-09T01:04:56.023Z,18.03
2018-10-09T01:07:25.263Z,17.77
2018-10-09T01:09:54.788Z,18.50
2018-10-09T01:12:24.094Z,18.13
2018-10-09T01:14:53.340Z,19.20
2018-10-09T01:17:22.591Z,19.57
2018-10-09T01:19:52.570Z,18.67
2018-10-09T01:22:21.809Z,19.67
2018-10-09T01:24:51.144Z,18.90
2018-10-09T01:27:20.379Z,19.67
2018-10-09T01:29:49.628Z,20.53
2018-10-09T01:32:19.051Z,20.13
2018-10-09T01:34:48.280Z,20.20
2018-10-09T01:37:17.531Z,20.33
2018-10-09T01:39:46.854Z,20.53
2018-10-09T01:42:16.134Z,19.70
2018-10-09T01:44:45.409Z,19.53
2018-10-09T01:47:14.731Z,20.63
2018-10-09T01:49:43.967Z,17.90
2018-10-09T01:52:13.217Z,19.73
2018-10-09T01:54:42.431Z,21.60
2018-10-09T01:57:11.882Z,20.87
2018-10-09T01:59:41.222Z,21.83
2018-10-09T02:02:10.449Z,21.40
2018-10-09T02:04:39.722Z,20.90
2018-10-09T02:07:09.089Z,22.13
2018-10-09T02:09:38.291Z,21.87
2018-10-09T02:12:07.518Z,22.57
2018-10-09T02:14:36.775Z,22.37
2018-10-09T02:17:06.185Z,20.87
2018-10-09T02:19:36.112Z,21.53
2018-10-09T02:22:05.420Z,22.07
2018-10-09T02:24:34.731Z,22.73
2018-10-09T02:27:04.823Z,22.77
2018-10-09T02:29:34.039Z,22.50
2018-10-09T02:32:03.260Z,23.13
2018-10-09T02:34:32.511Z,22.97
2018-10-09T02:37:01.723Z,23.00
2018-10-09T02:39:30.967Z,22.90
2018-10-09T02:42:00.212Z,23.83
2018-10-09T02:44:29.444Z,23.13
2018-10-09T02:46:58.682Z,23.97
2018-10-09T02:49:27.942Z,23.80
2018-10-09T02:51:57.626Z,25.00
2018-10-09T02:54:26.882Z,24.13
2018-10-09T02:56:56.126Z,25.20
2018-10-09T02:59:25.542Z,25.17
2018-10-09T03:01:54.787Z,24.87
2018-10-09T03:04:24.591Z,26.23
2018-10-09T03:06:53.849Z,25.80
2018-10-09T03:09:23.170Z,25.67
2018-10-09T03:11:52.498Z,25.10
2018-10-09T03:14:21.812Z,25.47
2018-10-09T03:16:51.053Z,27.13
2018-10-09T03:19:21.131Z,27.43
2018-10-09T03:21:50.351Z,27.17
2018-10-09T03:24:19.606Z,26.43
2018-10-09T03:26:48.862Z,27.50
2018-10-09T03:29:19.023Z,27.10
2018-10-09T03:31:48.238Z,26.70
2018-10-09T03:34:17.504Z,28.87
2018-10-09T03:36:46.718Z,28.60
2018-10-09T03:39:15.942Z,29.17
2018-10-09T03:41:45.183Z,28.20
2018-10-09T03:44:14.418Z,29.83
2018-10-09T03:46:43.644Z,29.40
2018-10-09T03:49:12.890Z,30.40
2018-10-09T03:51:42.117Z,30.70
2018-10-09T03:54:11.362Z,29.43
2018-10-09T03:56:40.607Z,31.10
2018-10-09T03:59:11.442Z,30.57
2018-10-09T04:01:40.992Z,31.13
2018-10-09T04:04:11.070Z,32.83
2018-10-09T04:06:40.304Z,32.97
2018-10-09T04:09:11.968Z,34.30
2018-10-09T04:11:41.105Z,33.33
2018-10-09T04:14:10.396Z,32.83
2018-10-09T04:16:39.631Z,31.77
2018-10-09T04:19:08.932Z,32.40
2018-10-09T04:21:38.152Z,32.40
2018-10-09T04:24:07.391Z,32.57
2018-10-09T04:26:36.646Z,31.83
2018-10-09T04:29:05.983Z,33.60
2018-10-09T04:31:35.267Z,33.60
2018-10-09T04:34:04.535Z,34.87
2018-10-09T04:36:33.765Z,34.77
2018-10-09T04:39:03.251Z,36.13
2018-10-09T04:41:32.531Z,36.13
2018-10-09T04:44:01.742Z,34.80
2018-10-09T04:46:31.234Z,34.93
2018-10-09T04:49:01.320Z,36.97
2018-10-09T04:51:31.111Z,36.13
2018-10-09T04:54:00.351Z,37.47
2018-10-09T04:56:29.690Z,36.63
2018-10-09T04:58:58.952Z,37.17
2018-10-09T05:01:28.997Z,36.73
2018-10-09T05:03:58.223Z,37.43
2018-10-09T05:06:27.495Z,36.83
2018-10-09T05:08:56.727Z,37.67
2018-10-09T05:11:25.952Z,38.47
2018-10-09T05:13:55.179Z,39.03
2018-10-09T05:16:24.408Z,38.43
2018-10-09T05:18:53.627Z,36.60
2018-10-09T05:21:22.848Z,36.60
2018-10-09T05:23:52.062Z,37.87
2018-10-09T05:26:21.381Z,39.23
2018-10-09T05:28:50.735Z,37.60
2018-10-09T05:31:20.039Z,39.73
2018-10-09T05:33:49.247Z,39.30
2018-10-09T05:36:18.501Z,39.23
2018-10-09T05:38:47.750Z,38.27
2018-10-09T05:41:17.509Z,38.03
2018-10-09T05:43:46.788Z,37.70
2018-10-09T05:46:16.011Z,37.07
2018-10-09T05:48:45.263Z,36.47
2018-10-09T05:51:14.485Z,35.83
2018-10-09T05:53:43.718Z,37.50
2018-10-09T05:56:12.955Z,37.07
2018-10-09T05:58:42.192Z,36.37
2018-10-09T06:01:11.447Z,37.47
2018-10-09T06:03:40.666Z,35.97
2018-10-09T06:06:10.086Z,36.90
2018-10-09T06:08:39.427Z,36.77
2018-10-09T06:11:08.827Z,37.00
2018-10-09T06:13:38.096Z,35.07
2018-10-09T06:16:07.514Z,36.93
2018-10-09T06:18:36.779Z,35.07
2018-10-09T06:21:06.336Z,35.33
2018-10-09T06:23:35.850Z,35.87
2018-10-09T06:26:05.466Z,34.33
2018-10-09T06:28:35.007Z,33.00
2018-10-09T06:31:04.832Z,33.53
2018-10-09T06:33:34.287Z,34.97
2018-10-09T06:36:03.814Z,32.77
2018-10-09T06:38:33.417Z,33.90
2018-10-09T06:41:02.920Z,33.90
2018-10-09T06:43:32.360Z,33.70
2018-10-09T06:46:01.958Z,34.10
2018-10-09T06:48:31.440Z,33.93
2018-10-09T06:51:00.889Z,34.47
2018-10-09T06:53:30.435Z,33.80
2018-10-09T06:55:59.808Z,34.30
2018-10-09T06:58:29.346Z,33.60
2018-10-09T07:00:59.483Z,33.10
2018-10-09T07:03:29.001Z,32.17
2018-10-09T07:05:58.476Z,31.50
2018-10-09T07:08:28.060Z,30.87
2018-10-09T07:10:58.655Z,31.90
2018-10-09T07:13:28.482Z,31.00
2018-10-09T07:15:57.955Z,31.67
2018-10-09T07:18:27.524Z,30.97
2018-10-09T07:20:57.035Z,31.53
2018-10-09T07:23:26.472Z,31.47
2018-10-09T07:25:55.928Z,30.70
2018-10-09T07:28:25.419Z,29.83
2018-10-09T07:30:55.023Z,29.50
2018-10-09T07:33:24.481Z,29.67
2018-10-09T07:35:54.067Z,28.07
2018-10-09T07:38:23.688Z,28.50
2018-10-09T07:40:53.146Z,28.57
2018-10-09T07:43:22.654Z,29.47
2018-10-09T07:45:52.277Z,27.90
2018-10-09T07:48:21.827Z,29.17
2018-10-09T07:50:51.980Z,28.10
2018-10-09T07:53:21.500Z,28.00
2018-10-09T07:55:50.951Z,26.63
2018-10-09T07:58:20.432Z,27.50
2018-10-09T08:00:49.900Z,28.23
2018-10-09T08:03:19.437Z,27.87
2018-10-09T08:05:49.196Z,27.60
2018-10-09T08:08:18.769Z,25.93
2018-10-09T08:10:48.320Z,26.87
2018-10-09T08:13:19.160Z,26.33
2018-10-09T08:15:48.602Z,25.10
2018-10-09T08:18:18.095Z,27.13
2018-10-09T08:20:47.572Z,25.97
2018-10-09T08:23:17.058Z,25.53
2018-10-09T08:25:46.602Z,25.13
2018-10-09T08:28:16.079Z,25.13
2018-10-09T08:30:46.368Z,26.17
2018-10-09T08:33:16.517Z,25.53
2018-10-09T08:35:45.985Z,24.70
2018-10-09T08:38:15.906Z,24.63
2018-10-09T08:40:45.356Z,24.87
2018-10-09T08:43:14.909Z,24.93
2018-10-09T08:45:44.591Z,23.57
2018-10-09T08:48:14.097Z,24.17
2018-10-09T08:50:43.866Z,23.37
2018-10-09T08:53:13.292Z,22.93
2018-10-09T08:55:42.786Z,22.60
2018-10-09T08:58:12.272Z,22.33
2018-10-09T09:00:42.455Z,22.77
2018-10-09T09:03:11.935Z,21.53
2018-10-09T09:05:41.361Z,22.00
2018-10-09T09:08:10.792Z,22.07
2018-10-09T09:10:40.490Z,19.90
2018-10-09T09:13:09.984Z,20.63
2018-10-09T09:15:39.483Z,19.37
2018-10-09T09:18:08.926Z,20.90
2018-10-09T09:20:38.519Z,19.70
2018-10-09T09:23:07.987Z,20.47
2018-10-09T09:25:37.848Z,20.07
2018-10-09T09:28:07.345Z,18.40
2018-10-09T09:30:36.844Z,17.83
2018-10-09T09:33:06.361Z,16.87
2018-10-09T09:35:35.866Z,16.70
2018-10-09T09:38:06.105Z,16.77
2018-10-09T09:40:35.623Z,17.03
2018-10-09T09:43:05.303Z,16.43
2018-10-09T09:45:34.758Z,16.03
2018-10-09T09:48:04.237Z,16.17
2018-10-09T09:50:33.960Z,16.43
2018-10-09T09:53:03.384Z,15.27
2018-10-09T09:55:32.847Z,15.90
2018-10-09T09:58:02.436Z,15.57
2018-10-09T10:00:37.071Z,15.17
2018-10-09T10:03:06.569Z,13.83
2018-10-09T10:05:36.025Z,14.43
2018-10-09T10:08:05.503Z,15.27
2018-10-09T10:10:35.925Z,13.90
2018-10-09T10:13:05.367Z,14.27
2018-10-09T10:15:34.898Z,12.90
2018-10-09T10:18:04.413Z,13.27
2018-10-09T10:20:34.275Z,13.00
2018-10-09T10:23:03.734Z,13.13
2018-10-09T10:25:33.240Z,12.47
2018-10-09T10:28:02.705Z,10.27
2018-10-09T10:30:32.210Z,10.30
2018-10-09T10:33:01.760Z,10.70
2018-10-09T10:35:31.246Z,7.73
2018-10-09T10:38:00.705Z,8.83
2018-10-09T10:40:30.216Z,8.90
2018-10-09T10:42:59.745Z,9.60
2018-10-09T10:45:29.204Z,9.37
2018-10-09T10:47:58.716Z,8.57
2018-10-09T10:50:28.204Z,9.23
2018-10-09T10:52:57.745Z,9.50
2018-10-09T10:55:27.470Z,9.60
2018-10-09T10:57:56.934Z,10.13
2018-10-09T11:00:26.419Z,9.90
2018-10-09T11:02:55.986Z,9.10
2018-10-09T11:05:25.435Z,9.13
2018-10-09T11:07:55.771Z,9.30
2018-10-09T11:10:25.215Z,9.53
2018-10-09T11:12:54.745Z,10.50
2018-10-09T11:15:24.264Z,10.17
2018-10-09T11:17:53.734Z,11.60
2018-10-09T11:20:23.201Z,11.87
2018-10-09T11:22:52.668Z,13.17
2018-10-09T11:25:22.148Z,12.90
2018-10-09T11:27:51.645Z,12.63
2018-10-09T11:30:21.133Z,13.50
2018-10-09T11:32:50.609Z,12.47
2018-10-09T11:35:20.086Z,12.00
2018-10-09T11:37:49.620Z,12.30
2018-10-09T11:40:19.225Z,13.83
2018-10-09T11:42:48.779Z,13.33
2018-10-09T11:45:18.305Z,12.73
2018-10-09T11:47:47.810Z,12.10
2018-10-09T11:50:17.323Z,10.33
2018-10-09T11:52:46.908Z,10.03
2018-10-09T11:55:16.463Z,10.23
2018-10-09T11:57:45.968Z,9.40
2018-10-09T12:00:15.428Z,8.83
2018-10-09T12:02:45.181Z,8.83
2018-10-09T12:05:14.616Z,8.70
2018-10-09T12:07:44.093Z,8.90
2018-10-09T12:10:13.592Z,9.10
2018-10-09T12:12:43.059Z,8.17
2018-10-09T12:15:12.549Z,9.50
2018-10-09T12:17:42.699Z,8.30
2018-10-09T12:20:12.721Z,9.33
2018-10-09T12:22:42.176Z,9.00
2018-10-09T12:25:11.737Z,9.90
2018-10-09T12:27:41.227Z,9.20
2018-10-09T12:30:10.792Z,9.87
2018-10-09T12:32:40.471Z,8.20
2018-10-09T12:35:09.990Z,8.67
2018-10-09T12:37:39.424Z,8.47
2018-10-09T12:40:09.029Z,9.10
2018-10-09T12:42:38.537Z,9.47
2018-10-09T12:45:08.107Z,8.30
2018-10-09T12:47:37.612Z,6.83
2018-10-09T12:50:07.144Z,6.80
2018-10-09T12:52:36.996Z,7.40
2018-10-09T12:55:06.605Z,7.80
2018-10-09T12:57:36.152Z,7.00
2018-10-09T13:00:05.844Z,7.67
2018-10-09T13:02:35.299Z,8.10
2018-10-09T13:05:04.828Z,8.23
2018-10-09T13:07:34.288Z,8.03
2018-10-09T13:10:03.841Z,7.80
2018-10-09T13:12:33.336Z,7.00
2018-10-09T13:15:03.963Z,7.83
2018-10-09T13:17:33.630Z,7.93
2018-10-09T13:20:03.039Z,7.63
2018-10-09T13:22:32.803Z,7.17
2018-10-09T13:25:02.057Z,7.50
2018-10-09T13:27:31.811Z,8.07
2018-10-09T13:30:01.305Z,7.57
2018-10-09T13:32:30.781Z,9.77
2018-10-09T13:35:00.223Z,7.93
2018-10-09T13:37:29.705Z,8.23
2018-10-09T13:39:59.762Z,8.90
2018-10-09T13:42:29.264Z,8.30
2018-10-09T13:44:58.764Z,8.20
2018-10-09T13:47:28.309Z,8.27
2018-10-09T13:49:57.696Z,8.00
2018-10-09T13:52:27.235Z,7.80
2018-10-09T13:54:56.707Z,8.13
2018-10-09T13:57:26.242Z,9.10
2018-10-09T13:59:55.664Z,8.53
2018-10-09T14:02:25.127Z,8.57
2018-10-09T14:04:54.625Z,8.53
2018-10-09T14:07:24.093Z,8.27
2018-10-09T14:09:53.659Z,8.30
2018-10-09T14:12:23.277Z,8.30
2018-10-09T14:14:52.745Z,8.30
2018-10-09T14:17:22.164Z,8.00
2018-10-09T14:19:51.839Z,7.73
2018-10-09T14:22:21.484Z,8.20
2018-10-09T14:24:50.937Z,8.33
2018-10-09T14:27:20.497Z,7.43
2018-10-09T14:29:50.031Z,7.67
2018-10-09T14:32:19.586Z,7.43
2018-10-09T14:34:49.221Z,7.40
2018-10-09T14:37:18.660Z,7.80
2018-10-09T14:39:48.192Z,7.70
2018-10-09T14:42:18.224Z,7.20
2018-10-09T14:44:47.744Z,7.73
2018-10-09T14:47:17.238Z,7.60
2018-10-09T14:49:46.455Z,8.10
2018-10-09T14:52:15.703Z,8.37
2018-10-09T14:54:44.983Z,7.83
2018-10-09T14:57:14.235Z,8.03
2018-10-09T14:59:43.502Z,8.00
2018-10-09T15:02:12.934Z,7.30
2018-10-09T15:04:42.146Z,6.80
2018-10-09T15:07:11.450Z,6.97
2018-10-09T15:09:41.381Z,7.03
2018-10-09T15:12:10.549Z,6.90
2018-10-09T15:14:39.893Z,7.13
2018-10-09T15:17:09.263Z,6.57
2018-10-09T15:19:38.460Z,7.33
2018-10-09T15:22:07.769Z,7.50
2018-10-09T15:24:37.051Z,6.93
2018-10-09T15:27:06.541Z,7.03
2018-10-09T15:29:35.904Z,7.63
2018-10-09T15:32:05.240Z,7.53
2018-10-09T15:34:34.500Z,7.40
2018-10-09T15:37:03.776Z,7.47
2018-10-09T15:39:33.049Z,7.67
2018-10-09T15:42:02.405Z,7.60
2018-10-09T15:44:31.812Z,7.60
2018-10-09T15:47:01.861Z,7.40
2018-10-09T15:49:31.163Z,8.20
2018-10-09T15:52:00.494Z,8.10
2018-10-09T15:54:29.744Z,8.23
2018-10-09T15:56:59.147Z,7.97
2018-10-09T15:59:28.492Z,8.17
2018-10-09T16:01:57.896Z,8.47
2018-10-09T16:04:27.139Z,9.43
2018-10-09T16:06:56.431Z,8.70
2018-10-09T16:09:25.807Z,9.47
2018-10-09T16:11:55.354Z,9.90
2018-10-09T16:14:24.704Z,10.50
2018-10-09T16:16:53.989Z,10.50
2018-10-09T16:19:23.955Z,11.13
2018-10-09T16:21:53.281Z,11.13
2018-10-09T16:24:22.545Z,10.90
2018-10-09T16:26:51.976Z,11.80
2018-10-09T16:29:21.273Z,11.63
2018-10-09T16:31:50.532Z,11.73
2018-10-09T16:34:19.804Z,11.50
2018-10-09T16:36:49.089Z,12.10
2018-10-09T16:39:18.343Z,12.03
2018-10-09T16:41:48.413Z,12.77
2018-10-09T16:44:17.682Z,11.87
2018-10-09T16:46:46.960Z,11.63
2018-10-09T16:49:16.263Z,11.60
2018-10-09T16:51:45.521Z,12.27
2018-10-09T16:54:14.793Z,12.03
2018-10-09T16:56:44.841Z,12.30
2018-10-09T16:59:14.221Z,12.50
2018-10-09T17:01:43.607Z,11.63
2018-10-09T17:04:12.904Z,10.70
2018-10-09T17:06:42.225Z,11.03
2018-10-09T17:09:11.940Z,11.77
2018-10-09T17:11:41.889Z,12.13
2018-10-09T17:14:11.788Z,11.17
2018-10-09T17:16:41.123Z,11.37
2018-10-09T17:19:10.667Z,11.70
2018-10-09T17:21:39.956Z,11.60
2018-10-09T17:24:09.204Z,12.57
2018-10-09T17:26:38.479Z,12.53
2018-10-09T17:29:07.752Z,15.83
2018-10-09T17:31:37.101Z,15.53
2018-10-09T17:34:06.460Z,15.00
2018-10-09T17:36:35.851Z,16.47
2018-10-09T17:39:08.109Z,16.27
2018-10-09T17:41:38.336Z,16.50
2018-10-09T17:44:07.683Z,14.93
2018-10-09T17:46:37.391Z,16.50
2018-10-09T17:49:06.716Z,15.60
2018-10-09T17:51:36.313Z,17.37
2018-10-09T17:54:05.610Z,18.47
2018-10-09T17:56:34.848Z,17.03
2018-10-09T17:59:04.141Z,16.93
2018-10-09T18:01:33.448Z,17.07
2018-10-09T18:04:02.806Z,18.00
2018-10-09T18:06:32.145Z,18.37
2018-10-09T18:09:01.535Z,17.27
2018-10-09T18:11:30.786Z,18.17
2018-10-09T18:14:00.185Z,17.37
2018-10-09T18:16:29.485Z,18.80
2018-10-09T18:18:58.787Z,17.83
2018-10-09T18:21:28.076Z,18.67
2018-10-09T18:23:57.330Z,18.77
2018-10-09T18:26:26.589Z,19.97
2018-10-09T18:28:55.859Z,19.87
2018-10-09T18:31:25.169Z,18.03
2018-10-09T18:33:54.480Z,18.63
2018-10-09T18:36:23.904Z,18.80
2018-10-09T18:38:53.161Z,18.17
2018-10-09T18:41:22.533Z,18.30
2018-10-09T18:43:51.905Z,17.47
2018-10-09T18:46:21.234Z,18.87
2018-10-09T18:48:50.510Z,18.63
2018-10-09T18:51:19.820Z,18.77
2018-10-09T18:53:49.148Z,19.03
2018-10-09T18:56:18.384Z,19.87
2018-10-09T18:58:48.419Z,20.27
2018-10-09T19:01:17.607Z,21.73
2018-10-09T19:03:46.949Z,20.53
2018-10-09T19:06:16.210Z,21.10
2018-10-09T19:08:45.488Z,20.27
2018-10-09T19:11:15.005Z,20.00
2018-10-09T19:13:47.428Z,22.07
2018-10-09T19:16:16.859Z,19.23
2018-10-09T19:18:46.146Z,21.07
2018-10-09T19:21:15.544Z,21.80
2018-10-09T19:23:44.964Z,21.57
2018-10-09T19:26:14.600Z,21.83
2018-10-09T19:28:43.912Z,21.00
2018-10-09T19:31:13.476Z,21.63
2018-10-09T19:33:42.907Z,20.90
2018-10-09T19:36:12.251Z,20.53
2018-10-09T19:38:41.536Z,20.87
2018-10-09T19:41:10.800Z,20.43
2018-10-09T19:43:40.142Z,20.77
2018-10-09T19:46:09.467Z,20.67
2018-10-09T19:48:38.764Z,20.23
2018-10-09T19:51:08.185Z,19.70
2018-10-09T19:53:37.600Z,20.83
2018-10-09T19:56:06.943Z,21.00
2018-10-09T19:58:36.240Z,20.93
2018-10-09T20:01:05.516Z,20.40
2018-10-09T20:03:34.778Z,19.77
2018-10-09T20:06:04.086Z,19.97
2018-10-09T20:08:33.434Z,20.03
2018-10-09T20:11:02.720Z,20.27
2018-10-09T20:13:32.040Z,19.47
2018-10-09T20:16:02.081Z,20.33
2018-10-09T20:18:31.317Z,20.60
2018-10-09T20:21:00.893Z,20.50
2018-10-09T20:23:30.157Z,20.30
2018-10-09T20:25:59.449Z,21.50
2018-10-09T20:28:28.760Z,21.50
2018-10-09T20:30:58.361Z,21.47
2018-10-09T20:33:27.700Z,20.00
2018-10-09T20:35:56.897Z,22.70
2018-10-09T20:38:26.180Z,20.67
2018-10-09T20:40:56.162Z,22.23
2018-10-09T20:43:25.405Z,22.80
2018-10-09T20:45:54.647Z,22.07
2018-10-09T20:48:23.914Z,23.27
2018-10-09T20:50:53.156Z,22.77
2018-10-09T20:53:22.406Z,22.77
2018-10-09T20:55:51.672Z,23.47
2018-10-09T20:58:20.902Z,23.10
2018-10-09T21:00:50.191Z,23.20
2018-10-09T21:03:19.462Z,23.80
2018-10-09T21:05:48.824Z,24.20
2018-10-09T21:08:17.982Z,24.27
2018-10-09T21:10:47.269Z,25.87
2018-10-09T21:13:18.007Z,25.00
2018-10-09T21:15:47.244Z,24.10
2018-10-09T21:18:16.528Z,26.80
2018-10-09T21:20:49.562Z,29.20
2018-10-09T21:23:18.829Z,26.53
2018-10-09T21:25:48.082Z,25.97
2018-10-09T21:28:17.368Z,24.77
2018-10-09T21:30:46.609Z,24.43
2018-10-09T21:33:15.930Z,25.77
2018-10-09T21:35:45.160Z,24.37
2018-10-09T21:38:14.392Z,24.40
2018-10-09T21:40:43.728Z,24.30
2018-10-09T21:43:13.140Z,26.33
2018-10-09T21:45:42.400Z,25.60
2018-10-09T21:48:11.646Z,24.77
2018-10-09T21:50:40.889Z,25.73
2018-10-09T21:53:10.214Z,23.50
2018-10-09T21:55:39.500Z,25.57
2018-10-09T21:58:08.784Z,25.70
2018-10-09T22:00:43.433Z,25.30
2018-10-09T22:03:13.572Z,26.37
2018-10-09T22:05:43.527Z,27.13
2018-10-09T22:08:13.051Z,25.67
2018-10-09T22:10:42.313Z,26.90
2018-10-09T22:13:11.547Z,25.20
2018-10-09T22:15:40.872Z,27.53
2018-10-09T22:18:10.244Z,27.57
2018-10-09T22:20:39.593Z,27.07
2018-10-09T22:23:08.839Z,27.47
2018-10-09T22:25:38.108Z,26.97
2018-10-09T22:28:07.412Z,26.67
2018-10-09T22:30:36.726Z,27.57
2018-10-09T22:33:06.584Z,26.83
2018-10-09T22:35:35.900Z,26.77
2018-10-09T22:38:05.224Z,25.50
2018-10-09T22:40:34.475Z,26.13
2018-10-09T22:43:03.753Z,26.60
2018-10-09T22:45:33.010Z,27.07
2018-10-09T22:48:02.980Z,25.57
2018-10-09T22:50:32.219Z,26.67
2018-10-09T22:53:01.490Z,26.10
2018-10-09T22:55:30.747Z,26.53
2018-10-09T22:57:59.976Z,27.40
2018-10-09T23:00:29.256Z,26.63
2018-10-09T23:02:58.487Z,26.30
2018-10-09T23:05:27.747Z,27.47
2018-10-09T23:07:56.988Z,27.00
2018-10-09T23:10:26.217Z,26.37
2018-10-09T23:12:55.660Z,25.83
2018-10-09T23:15:25.780Z,27.27
2018-10-09T23:17:55.015Z,25.43
2018-10-09T23:20:24.273Z,26.43
2018-10-09T23:22:53.551Z,26.83
2018-10-09T23:25:22.887Z,27.40
2018-10-09T23:27:52.099Z,26.90
2018-10-09T23:30:21.401Z,23.40
2018-10-09T23:32:50.642Z,24.73
2018-10-09T23:35:20.000Z,27.30
2018-10-09T23:37:49.382Z,28.50
2018-10-09T23:40:18.642Z,27.47
2018-10-09T23:42:47.962Z,26.67
2018-10-09T23:45:17.100Z,28.77
2018-10-09T23:47:46.409Z,27.87
2018-10-09T23:50:15.645Z,29.77
2018-10-09T23:52:44.876Z,29.97
2018-10-09T23:55:14.139Z,33.93
2018-10-09T23:57:43.504Z,30.80
